Whitewater Creek, Colorado (Grand Mesa) Weather observations

Data are for observation ending at time listed.
 Day   Time    Ave.   Ave.  Ave.  Vector   Max.    Total    Solar   Ave.  
  of    of     Air    Rel.  Wind   Wind    Wind   Precip.   Rad.    Soil  
Year   Day     Temp.  Hum.  Speed  Dir.    Gust                     Temp. 
2015   (MST)    F      %     mph   deg.    mph      in.     W/m2     F   
------------------------------------------------------------------------------
  89   23:20   35.2    39    2.2     8      2.2    99999.00   99999    99999.0
  89   23:30   35.0    39    2.2     8      2.2    99999.00   99999    99999.0
  89   23:40   34.9    40    2.2     8      2.2    99999.00   99999    99999.0
  89   23:50   34.7    40    2.2     8      2.2    99999.00   99999    99999.0
  90    0:00   34.6    41    2.2     8      2.2    99999.00   99999    99999.0
  90    0:10   33.6    45    2.2     8      2.2    99999.00   99999    99999.0
  90    0:20   33.6    45    2.2     8      2.2    99999.00   99999    99999.0
  90    0:30   34.1    41    2.2     8      2.2    99999.00   99999    99999.0
  90    0:40   33.8    43    2.2     8      2.2    99999.00   99999    99999.0
  90    0:50   33.6    44    2.2     8      2.2    99999.00   99999    99999.0
  90    1:00   34.0    40    2.2     8      2.2    99999.00   99999    99999.0
  90    1:10   33.2    46    2.2     8      2.2    99999.00   99999    99999.0
  90    1:20   33.4    45    2.2     8      2.2    99999.00   99999    99999.0
  90    1:30   33.7    41    2.2     8      2.2    99999.00   99999    99999.0
  90    1:40   33.5    40    2.2     8      2.2    99999.00   99999    99999.0
  90    1:50   33.2    45    2.2     8      2.2    99999.00   99999    99999.0
  90    2:00   32.9    44    2.2     8      2.2    99999.00   99999    99999.0
  90    2:10   31.9    49    2.2     8      2.2    99999.00   99999    99999.0
  90    2:20   31.5    52    2.2     9      2.2    99999.00   99999    99999.0
  90    2:30   31.5    54    2.2     9      2.2    99999.00   99999    99999.0
  90    2:40   32.5    44    2.2     8      2.2    99999.00   99999    99999.0
  90    2:50   32.8    44    2.2     8      2.2    99999.00   99999    99999.0
  90    3:00   32.4    42    2.2     8      2.2    99999.00   99999    99999.0
  90    3:10   31.8    44    2.2     8      2.2    99999.00   99999    99999.0
  90    3:20   31.8    48    2.2     8      2.2    99999.00   99999    99999.0
  90    3:30   31.3    50    2.2     8      2.2    99999.00   99999    99999.0
  90    3:40   31.4    47    2.2     8      2.2    99999.00   99999    99999.0
  90    3:50   31.0    46    2.2     8      2.2    99999.00   99999    99999.0
  90    4:00   31.0    46    2.2     8      2.2    99999.00   99999    99999.0
  90    4:10   30.8    46    2.2     9      2.2    99999.00   99999    99999.0
  90    4:20   31.8    44    2.2     8      2.2    99999.00   99999    99999.0
  90    4:30   32.2    46    2.2     8      2.2    99999.00   99999    99999.0
  90    4:40   32.1    44    2.2     8      2.2    99999.00   99999    99999.0
  90    4:50   32.2    43    2.2     8      2.2    99999.00   99999    99999.0
  90    5:00   33.3    40    2.2     8      2.2    99999.00   99999    99999.0
  90    5:10   33.0    40    2.2     9      2.2    99999.00   99999    99999.0
  90    5:20   31.5    44    2.2     9      2.2    99999.00   99999    99999.0
  90    5:30   29.8    47    2.2     9      2.2    99999.00   99999    99999.0
  90    5:40   30.4    45    2.2     8      2.2    99999.00   99999    99999.0
  90    5:50   31.1    44    2.2     8      2.2    99999.00   99999    99999.0
  90    6:00   31.2    43    2.2     8      2.2    99999.00   99999    99999.0
  90    6:10   31.5    43    2.2     8      2.2    99999.00   99999    99999.0
  90    6:20   31.4    43    2.2     8      2.2    99999.00   99999    99999.0
  90    6:30   31.5    43    2.2     8      2.2    99999.00   99999    99999.0
  90    6:40   31.8    42    2.2     9      2.2    99999.00   99999    99999.0
  90    6:50   32.0    42    2.2     9      2.2    99999.00   99999    99999.0
  90    7:00   32.1    42    2.2     9      2.2    99999.00   99999    99999.0
  90    7:10   32.2    42    2.2     8      2.2    99999.00   99999    99999.0
  90    7:20   32.6    42    2.2     8      2.2    99999.00   99999    99999.0
  90    7:30   34.7    38    2.2     8      2.2    99999.00   99999    99999.0
  90    7:40   36.0    36    2.2     8      2.2    99999.00   99999    99999.0
  90    7:50   36.9    34    2.2     8      2.2    99999.00   99999    99999.0
  90    8:00   38.8    32    2.2     8      2.2    99999.00   99999    99999.0
  90    8:10   39.7    31    2.2   188      2.2    99999.00   99999    99999.0
  90    8:20   41.1    30    2.2   184      2.2    99999.00   99999    99999.0
  90    8:30   42.4    28    5.0   212      8.6    99999.00   99999    99999.0
  90    8:40   44.9    25    7.5   214     11.2    99999.00   99999    99999.0
  90    8:50   44.7    26    8.2   201      9.9    99999.00   99999    99999.0
  90    9:00   45.3    25    8.1   200      9.9    99999.00   99999    99999.0
  90    9:10   46.2    24    8.2   200     11.2    99999.00   99999    99999.0
  90    9:20   46.7    24    8.4   200     12.5    99999.00   99999    99999.0
  90    9:30   46.1    26    8.2   211     11.2    99999.00   99999    99999.0
  90    9:40   45.1    30    8.2   214     11.2    99999.00   99999    99999.0
  90    9:50   45.3    28    9.8   213     12.5    99999.00   99999    99999.0
  90   10:00   46.2    26   10.7   212     15.0    99999.00   99999    99999.0
  90   10:10   46.4    26   10.6   207     13.8    99999.00   99999    99999.0
  90   10:20   46.8    26    9.8   210     12.5    99999.00   99999    99999.0
  90   10:30   46.9    26   10.8   208     15.0    99999.00   99999    99999.0
  90   10:40   46.9    26   10.8   208     13.8    99999.00   99999    99999.0
  90   10:50   47.1    26   11.4   210     15.0    99999.00   99999    99999.0
  90   11:00   46.9    26   11.6   210     17.6    99999.00   99999    99999.0
  90   11:10   46.9    27   11.0   213     16.3    99999.00   99999    99999.0
  90   11:20   46.4    29   10.9   213     15.0    99999.00   99999    99999.0
  90   11:30   46.1    29   13.2   214     17.6    99999.00   99999    99999.0
  90   11:40   46.7    28   13.4   210     17.6    99999.00   99999    99999.0
  90   11:50   46.7    29   14.1   210     21.4    99999.00   99999    99999.0
  90   12:00   46.9    28   15.4   207     20.2    99999.00   99999    99999.0
  90   12:10   47.2    27   15.2   203     20.2    99999.00   99999    99999.0
  90   12:20   47.8    26   15.6   200     22.7    99999.00   99999    99999.0
  90   12:30   47.8    27   13.3   206     18.9    99999.00   99999    99999.0
  90   12:40   47.1    30   11.4   218     16.3    99999.00   99999    99999.0
  90   12:50   47.4    28   13.8   212     24.0    99999.00   99999    99999.0
  90   13:00   47.1    29   13.4   209     18.9    99999.00   99999    99999.0
  90   13:10   47.7    29   11.8   214     21.4    99999.00   99999    99999.0
  90   13:20   47.8    30    9.2   230     18.9    99999.00   99999    99999.0
  90   13:30   47.7    29   10.2   219     20.2    99999.00   99999    99999.0
  90   13:40   48.0    27   10.5   223     16.3    99999.00   99999    99999.0
  90   13:50   47.6    28   10.8   254     18.9    99999.00   99999    99999.0
  90   14:00   46.9    31   11.3   259     17.6    99999.00   99999    99999.0
  90   14:10   46.9    30   11.3   254     16.3    99999.00   99999    99999.0
  90   14:20   47.9    29    8.8   247     13.8    99999.00   99999    99999.0
  90   14:30   48.4    29    8.3   254     17.6    99999.00   99999    99999.0
  90   14:40   46.9    30   11.4   248     17.6    99999.00   99999    99999.0
  90   14:50   46.5    32   10.6   213     18.9    99999.00   99999    99999.0
  90   15:00   47.0    31   11.8   252     18.9    99999.00   99999    99999.0
  90   15:10   46.9    31   11.8   242     24.0    99999.00   99999    99999.0
  90   15:20   47.4    30   10.3   240     16.3    99999.00   99999    99999.0
  90   15:30   49.4    26    7.8   245     11.2    99999.00   99999    99999.0
  90   15:40   48.4    28    8.0   230     15.0    99999.00   99999    99999.0
  90   15:50   49.0    27    9.4   236     17.6    99999.00   99999    99999.0
  90   16:00   48.1    28    8.8   239     16.3    99999.00   99999    99999.0
  90   16:10   46.8    30    7.7   239     12.5    99999.00   99999    99999.0
  90   16:20   46.7    31   11.0   216     20.2    99999.00   99999    99999.0
  90   16:30   48.7    29   10.2   219     16.3    99999.00   99999    99999.0
  90   16:40   47.7    30   13.2   247     25.3    99999.00   99999    99999.0
  90   16:50   47.9    30   12.8   230     22.7    99999.00   99999    99999.0
  90   17:00   47.8    29    7.8   259     11.2    99999.00   99999    99999.0
  90   17:10   46.3    31    8.9   233     13.8    99999.00   99999    99999.0
  90   17:20   46.3    32   13.9   222     27.8    99999.00   99999    99999.0
  90   17:30   47.2    30   14.8   188     22.7    99999.00   99999    99999.0
  90   17:40   46.6    34    7.4   243     12.5    99999.00   99999    99999.0
  90   17:50   47.1    32   10.7   231     17.6    99999.00   99999    99999.0
  90   18:00   46.1    34    6.8   244     12.5    99999.00   99999    99999.0
  90   18:10   44.6    38   10.6   247     15.0    99999.00   99999    99999.0
  90   18:20   45.8    34   11.5   228     16.3    99999.00   99999    99999.0
  90   18:30   44.7    37    7.5   228     11.2    99999.00   99999    99999.0
  90   18:40   44.5    36    9.8   216     16.3    99999.00   99999    99999.0
  90   18:50   43.6    40    8.0   221     11.2    99999.00   99999    99999.0
  90   19:00   44.9    34   15.8   202     36.8    99999.00   99999    99999.0
  90   19:10   43.7    39   12.3   216     16.3    99999.00   99999    99999.0
  90   19:20   43.2    40   10.0   212     13.8    99999.00   99999    99999.0
  90   19:30   43.4    38   11.2   205     16.3    99999.00   99999    99999.0
  90   19:40   43.7    36   13.9   208     18.9    99999.00   99999    99999.0
  90   19:50   43.7    35   14.0   204     18.9    99999.00   99999    99999.0
  90   20:00   44.0    34   14.7   202     20.2    99999.00   99999    99999.0
  90   20:10   43.8    33   15.2   202     18.9    99999.00   99999    99999.0
  90   20:20   44.3    32   16.0   201     20.2    99999.00   99999    99999.0
  90   20:30   44.5    31   16.0   202     21.4    99999.00   99999    99999.0
  90   20:40   44.6    30   17.1   200     21.4    99999.00   99999    99999.0
  90   20:50   44.0    32   15.1   210     21.4    99999.00   99999    99999.0
  90   21:00   42.1    36    9.4   230     15.0    99999.00   99999    99999.0
  90   21:10   43.0    33    9.7   232     15.0    99999.00   99999    99999.0
  90   21:20   42.0    36   12.8   211     20.2    99999.00   99999    99999.0
  90   21:30   42.9    32   16.6   201     21.4    99999.00   99999    99999.0
  90   21:40   42.4    33   17.1   202     21.4    99999.00   99999    99999.0
  90   21:50   42.5    33   18.8   202     25.3    99999.00   99999    99999.0
  90   22:00   42.5    33   20.5   206     25.3    99999.00   99999    99999.0
  90   22:10   41.5    35   20.9   210     25.3    99999.00   99999    99999.0
  90   22:20   42.0    33   21.6   208     29.1    99999.00   99999    99999.0
  90   22:30   41.8    34   23.7   210     30.4    99999.00   99999    99999.0
  90   22:40   41.5    34   23.3   211     29.1    99999.00   99999    99999.0
  90   22:50   41.7    33   24.2   209     33.0    99999.00   99999    99999.0
  90   23:00   42.0    33   25.7   208     31.7    99999.00   99999    99999.0
  90   23:10   42.0    33   25.5   208     33.0    99999.00   99999    99999.0

Return to Whitewater Creek, Colorado graphs page.


Western Regional Climate Center,wrcc@dri.edu